sensor_id;sensor_type;location;lat;lon;timestamp;P1;durP1;ratioP1;P2;durP2;ratioP2
5533;SDS011;2789;51.902;7.636;2022-08-19T00:00:39;6.45;;;4.47;;
5533;SDS011;2789;51.902;7.636;2022-08-19T00:01:41;5.80;;;4.70;;
5533;SDS011;2789;51.902;7.636;2022-08-19T00:02:53;6.25;;;4.72;;
5533;SDS011;2789;51.902;7.636;2022-08-19T00:03:55;9.65;;;5.22;;
5533;SDS011;2789;51.902;7.636;2022-08-19T00:04:58;4.38;;;3.97;;
5533;SDS011;2789;51.902;7.636;2022-08-19T00:06:01;5.78;;;5.00;;
5533;SDS011;2789;51.902;7.636;2022-08-19T00:07:02;7.00;;;4.90;;
5533;SDS011;2789;51.902;7.636;2022-08-19T00:08:06;6.72;;;4.75;;
5533;SDS011;2789;51.902;7.636;2022-08-19T00:09:09;7.88;;;5.00;;
5533;SDS011;2789;51.902;7.636;2022-08-19T00:10:14;8.43;;;5.32;;
5533;SDS011;2789;51.902;7.636;2022-08-19T00:11:18;7.15;;;5.40;;
5533;SDS011;2789;51.902;7.636;2022-08-19T00:12:26;7.82;;;5.80;;
5533;SDS011;2789;51.902;7.636;2022-08-19T00:13:29;6.72;;;6.13;;
5533;SDS011;2789;51.902;7.636;2022-08-19T00:14:31;11.32;;;5.32;;
5533;SDS011;2789;51.902;7.636;2022-08-19T00:15:33;6.50;;;5.72;;
5533;SDS011;2789;51.902;7.636;2022-08-19T00:16:37;10.38;;;5.40;;
5533;SDS011;2789;51.902;7.636;2022-08-19T00:17:40;6.53;;;5.25;;
5533;SDS011;2789;51.902;7.636;2022-08-19T00:18:44;7.07;;;5.40;;
5533;SDS011;2789;51.902;7.636;2022-08-19T00:19:46;8.02;;;5.10;;
5533;SDS011;2789;51.902;7.636;2022-08-19T00:20:48;6.95;;;5.45;;
5533;SDS011;2789;51.902;7.636;2022-08-19T00:21:50;6.85;;;5.13;;
5533;SDS011;2789;51.902;7.636;2022-08-19T00:22:53;7.30;;;5.55;;
5533;SDS011;2789;51.902;7.636;2022-08-19T00:23:56;7.75;;;5.80;;
5533;SDS011;2789;51.902;7.636;2022-08-19T00:24:59;10.25;;;5.88;;
5533;SDS011;2789;51.902;7.636;2022-08-19T00:26:02;8.13;;;5.85;;
5533;SDS011;2789;51.902;7.636;2022-08-19T00:27:04;6.72;;;5.38;;
5533;SDS011;2789;51.902;7.636;2022-08-19T00:28:26;7.85;;;5.82;;
5533;SDS011;2789;51.902;7.636;2022-08-19T00:29:28;14.77;;;5.13;;
5533;SDS011;2789;51.902;7.636;2022-08-19T00:30:32;7.93;;;6.15;;
5533;SDS011;2789;51.902;7.636;2022-08-19T00:31:33;9.23;;;6.00;;
5533;SDS011;2789;51.902;7.636;2022-08-19T00:32:38;11.15;;;6.00;;
5533;SDS011;2789;51.902;7.636;2022-08-19T00:33:41;9.18;;;5.63;;
5533;SDS011;2789;51.902;7.636;2022-08-19T00:34:42;9.20;;;5.57;;
5533;SDS011;2789;51.902;7.636;2022-08-19T00:35:45;7.07;;;5.85;;
5533;SDS011;2789;51.902;7.636;2022-08-19T00:36:56;7.97;;;5.20;;
5533;SDS011;2789;51.902;7.636;2022-08-19T00:38:00;9.82;;;6.07;;
5533;SDS011;2789;51.902;7.636;2022-08-19T00:39:02;7.13;;;5.25;;
5533;SDS011;2789;51.902;7.636;2022-08-19T00:40:06;12.27;;;6.25;;
5533;SDS011;2789;51.902;7.636;2022-08-19T00:41:08;7.65;;;6.15;;
5533;SDS011;2789;51.902;7.636;2022-08-19T00:42:15;10.82;;;6.75;;
5533;SDS011;2789;51.902;7.636;2022-08-19T00:43:18;7.55;;;5.82;;
5533;SDS011;2789;51.902;7.636;2022-08-19T00:44:23;10.40;;;6.28;;
5533;SDS011;2789;51.902;7.636;2022-08-19T00:45:28;6.18;;;5.05;;
5533;SDS011;2789;51.902;7.636;2022-08-19T00:46:37;8.15;;;5.47;;
5533;SDS011;2789;51.902;7.636;2022-08-19T00:47:41;6.05;;;5.45;;
5533;SDS011;2789;51.902;7.636;2022-08-19T00:48:44;10.60;;;6.47;;
5533;SDS011;2789;51.902;7.636;2022-08-19T00:49:47;7.68;;;5.97;;
5533;SDS011;2789;51.902;7.636;2022-08-19T00:50:52;9.18;;;5.95;;
5533;SDS011;2789;51.902;7.636;2022-08-19T00:51:56;7.15;;;5.82;;
5533;SDS011;2789;51.902;7.636;2022-08-19T00:53:02;7.82;;;6.32;;
5533;SDS011;2789;51.902;7.636;2022-08-19T00:54:05;9.20;;;6.95;;
5533;SDS011;2789;51.902;7.636;2022-08-19T00:55:08;8.90;;;6.57;;
5533;SDS011;2789;51.902;7.636;2022-08-19T00:56:13;10.60;;;6.30;;
5533;SDS011;2789;51.902;7.636;2022-08-19T00:57:17;7.75;;;5.75;;
5533;SDS011;2789;51.902;7.636;2022-08-19T00:58:22;8.30;;;6.53;;
5533;SDS011;2789;51.902;7.636;2022-08-19T00:59:28;8.88;;;6.32;;
5533;SDS011;2789;51.902;7.636;2022-08-19T01:00:50;7.65;;;6.25;;
5533;SDS011;2789;51.902;7.636;2022-08-19T01:01:53;11.63;;;6.28;;
5533;SDS011;2789;51.902;7.636;2022-08-19T01:02:56;13.05;;;6.93;;
5533;SDS011;2789;51.902;7.636;2022-08-19T01:03:59;9.70;;;6.13;;
5533;SDS011;2789;51.902;7.636;2022-08-19T01:05:03;10.02;;;6.53;;
5533;SDS011;2789;51.902;7.636;2022-08-19T01:06:07;10.60;;;5.97;;
5533;SDS011;2789;51.902;7.636;2022-08-19T01:07:09;12.57;;;6.72;;
5533;SDS011;2789;51.902;7.636;2022-08-19T01:08:18;12.15;;;6.82;;
5533;SDS011;2789;51.902;7.636;2022-08-19T01:09:21;8.60;;;6.38;;
5533;SDS011;2789;51.902;7.636;2022-08-19T01:10:24;10.35;;;6.85;;
5533;SDS011;2789;51.902;7.636;2022-08-19T01:11:27;8.80;;;6.45;;
5533;SDS011;2789;51.902;7.636;2022-08-19T01:12:30;8.55;;;6.80;;
5533;SDS011;2789;51.902;7.636;2022-08-19T01:13:32;9.68;;;6.60;;
5533;SDS011;2789;51.902;7.636;2022-08-19T01:14:50;8.70;;;5.90;;
5533;SDS011;2789;51.902;7.636;2022-08-19T01:15:54;9.40;;;6.38;;
5533;SDS011;2789;51.902;7.636;2022-08-19T01:16:59;7.80;;;5.88;;
5533;SDS011;2789;51.902;7.636;2022-08-19T01:18:04;10.52;;;6.70;;
5533;SDS011;2789;51.902;7.636;2022-08-19T01:19:12;7.95;;;5.50;;
5533;SDS011;2789;51.902;7.636;2022-08-19T01:20:21;8.77;;;6.22;;
5533;SDS011;2789;51.902;7.636;2022-08-19T01:21:26;11.93;;;6.72;;
5533;SDS011;2789;51.902;7.636;2022-08-19T01:22:31;11.20;;;6.65;;
5533;SDS011;2789;51.902;7.636;2022-08-19T01:23:36;12.30;;;7.20;;
5533;SDS011;2789;51.902;7.636;2022-08-19T01:24:44;10.02;;;6.82;;
5533;SDS011;2789;51.902;7.636;2022-08-19T01:25:50;8.80;;;6.70;;
5533;SDS011;2789;51.902;7.636;2022-08-19T01:26:55;8.88;;;7.22;;
5533;SDS011;2789;51.902;7.636;2022-08-19T01:27:58;7.28;;;6.13;;
5533;SDS011;2789;51.902;7.636;2022-08-19T01:29:11;11.48;;;6.85;;
5533;SDS011;2789;51.902;7.636;2022-08-19T01:30:16;8.65;;;6.97;;
5533;SDS011;2789;51.902;7.636;2022-08-19T01:31:20;12.93;;;7.20;;
5533;SDS011;2789;51.902;7.636;2022-08-19T01:32:27;10.60;;;7.28;;
5533;SDS011;2789;51.902;7.636;2022-08-19T01:33:34;12.02;;;7.55;;
5533;SDS011;2789;51.902;7.636;2022-08-19T01:34:36;11.48;;;6.70;;
5533;SDS011;2789;51.902;7.636;2022-08-19T01:35:38;11.52;;;7.40;;
5533;SDS011;2789;51.902;7.636;2022-08-19T01:36:42;12.82;;;7.63;;
5533;SDS011;2789;51.902;7.636;2022-08-19T01:37:50;13.45;;;7.78;;
5533;SDS011;2789;51.902;7.636;2022-08-19T01:38:53;10.82;;;7.00;;
5533;SDS011;2789;51.902;7.636;2022-08-19T01:39:56;8.45;;;6.97;;
5533;SDS011;2789;51.902;7.636;2022-08-19T01:40:58;12.95;;;7.70;;
5533;SDS011;2789;51.902;7.636;2022-08-19T01:42:10;9.88;;;7.57;;
5533;SDS011;2789;51.902;7.636;2022-08-19T01:43:13;9.15;;;6.97;;
5533;SDS011;2789;51.902;7.636;2022-08-19T01:44:16;10.18;;;7.55;;
5533;SDS011;2789;51.902;7.636;2022-08-19T01:45:20;10.50;;;6.50;;
5533;SDS011;2789;51.902;7.636;2022-08-19T01:46:24;10.80;;;7.30;;
5533;SDS011;2789;51.902;7.636;2022-08-19T01:47:26;12.27;;;7.72;;
5533;SDS011;2789;51.902;7.636;2022-08-19T01:48:32;10.52;;;6.90;;
5533;SDS011;2789;51.902;7.636;2022-08-19T01:49:35;11.65;;;6.93;;
5533;SDS011;2789;51.902;7.636;2022-08-19T01:50:38;15.00;;;6.65;;
5533;SDS011;2789;51.902;7.636;2022-08-19T01:51:39;11.82;;;7.85;;
5533;SDS011;2789;51.902;7.636;2022-08-19T01:52:42;8.88;;;7.00;;
5533;SDS011;2789;51.902;7.636;2022-08-19T01:53:48;13.40;;;8.00;;
5533;SDS011;2789;51.902;7.636;2022-08-19T01:54:51;10.02;;;6.72;;
5533;SDS011;2789;51.902;7.636;2022-08-19T01:55:53;13.10;;;7.57;;
5533;SDS011;2789;51.902;7.636;2022-08-19T01:56:58;10.68;;;6.97;;
5533;SDS011;2789;51.902;7.636;2022-08-19T01:58:02;12.40;;;6.75;;
5533;SDS011;2789;51.902;7.636;2022-08-19T01:59:08;11.35;;;7.22;;
5533;SDS011;2789;51.902;7.636;2022-08-19T02:00:13;8.25;;;6.55;;
5533;SDS011;2789;51.902;7.636;2022-08-19T02:01:17;9.07;;;6.47;;
5533;SDS011;2789;51.902;7.636;2022-08-19T02:02:20;8.25;;;6.50;;
5533;SDS011;2789;51.902;7.636;2022-08-19T02:03:22;8.90;;;6.40;;
5533;SDS011;2789;51.902;7.636;2022-08-19T02:04:24;7.65;;;5.95;;
5533;SDS011;2789;51.902;7.636;2022-08-19T02:05:27;12.80;;;7.90;;
5533;SDS011;2789;51.902;7.636;2022-08-19T02:06:30;10.75;;;6.72;;
5533;SDS011;2789;51.902;7.636;2022-08-19T02:07:33;9.63;;;6.07;;
5533;SDS011;2789;51.902;7.636;2022-08-19T02:08:38;7.90;;;6.45;;
5533;SDS011;2789;51.902;7.636;2022-08-19T02:09:42;6.80;;;5.78;;
5533;SDS011;2789;51.902;7.636;2022-08-19T02:10:44;7.75;;;6.20;;
5533;SDS011;2789;51.902;7.636;2022-08-19T02:11:47;11.93;;;6.80;;
5533;SDS011;2789;51.902;7.636;2022-08-19T02:12:48;8.80;;;5.68;;
5533;SDS011;2789;51.902;7.636;2022-08-19T02:13:52;7.35;;;6.55;;
5533;SDS011;2789;51.902;7.636;2022-08-19T02:14:54;10.35;;;6.40;;
5533;SDS011;2789;51.902;7.636;2022-08-19T02:15:57;7.18;;;6.13;;
5533;SDS011;2789;51.902;7.636;2022-08-19T02:17:00;8.73;;;6.32;;
5533;SDS011;2789;51.902;7.636;2022-08-19T02:18:02;8.02;;;6.80;;
5533;SDS011;2789;51.902;7.636;2022-08-19T02:19:04;7.53;;;5.47;;
5533;SDS011;2789;51.902;7.636;2022-08-19T02:20:08;8.43;;;5.85;;
5533;SDS011;2789;51.902;7.636;2022-08-19T02:21:11;10.10;;;6.82;;
5533;SDS011;2789;51.902;7.636;2022-08-19T02:22:14;8.70;;;6.25;;
5533;SDS011;2789;51.902;7.636;2022-08-19T02:23:16;11.40;;;7.40;;
5533;SDS011;2789;51.902;7.636;2022-08-19T02:24:19;9.88;;;6.65;;
5533;SDS011;2789;51.902;7.636;2022-08-19T02:25:22;12.02;;;6.43;;
5533;SDS011;2789;51.902;7.636;2022-08-19T02:26:25;8.15;;;6.00;;
5533;SDS011;2789;51.902;7.636;2022-08-19T02:27:28;11.25;;;6.10;;
5533;SDS011;2789;51.902;7.636;2022-08-19T02:28:30;8.18;;;5.85;;
5533;SDS011;2789;51.902;7.636;2022-08-19T02:29:33;6.78;;;5.43;;
5533;SDS011;2789;51.902;7.636;2022-08-19T02:30:35;7.68;;;5.90;;
5533;SDS011;2789;51.902;7.636;2022-08-19T02:31:37;12.07;;;6.15;;
5533;SDS011;2789;51.902;7.636;2022-08-19T02:32:39;8.45;;;5.82;;
5533;SDS011;2789;51.902;7.636;2022-08-19T02:33:45;8.52;;;5.72;;
5533;SDS011;2789;51.902;7.636;2022-08-19T02:34:47;7.45;;;5.82;;
5533;SDS011;2789;51.902;7.636;2022-08-19T02:35:50;9.38;;;5.65;;
5533;SDS011;2789;51.902;7.636;2022-08-19T02:36:52;7.78;;;5.40;;
5533;SDS011;2789;51.902;7.636;2022-08-19T02:37:54;9.55;;;5.90;;
5533;SDS011;2789;51.902;7.636;2022-08-19T02:39:14;8.60;;;6.40;;
5533;SDS011;2789;51.902;7.636;2022-08-19T02:40:16;9.05;;;6.40;;
5533;SDS011;2789;51.902;7.636;2022-08-19T02:41:21;8.07;;;5.95;;
5533;SDS011;2789;51.902;7.636;2022-08-19T02:42:27;7.82;;;5.95;;
5533;SDS011;2789;51.902;7.636;2022-08-19T02:43:29;7.47;;;6.07;;
5533;SDS011;2789;51.902;7.636;2022-08-19T02:44:34;8.82;;;5.55;;
5533;SDS011;2789;51.902;7.636;2022-08-19T02:45:37;8.70;;;6.03;;
5533;SDS011;2789;51.902;7.636;2022-08-19T02:46:42;6.72;;;5.55;;
5533;SDS011;2789;51.902;7.636;2022-08-19T02:47:46;7.45;;;6.07;;
5533;SDS011;2789;51.902;7.636;2022-08-19T02:48:48;9.48;;;6.57;;
5533;SDS011;2789;51.902;7.636;2022-08-19T02:49:52;8.68;;;6.15;;
5533;SDS011;2789;51.902;7.636;2022-08-19T02:50:53;6.57;;;5.57;;
5533;SDS011;2789;51.902;7.636;2022-08-19T02:51:57;8.45;;;5.97;;
5533;SDS011;2789;51.902;7.636;2022-08-19T02:52:58;8.60;;;5.80;;
5533;SDS011;2789;51.902;7.636;2022-08-19T02:54:01;9.63;;;6.32;;
5533;SDS011;2789;51.902;7.636;2022-08-19T02:55:04;12.15;;;6.72;;
5533;SDS011;2789;51.902;7.636;2022-08-19T02:56:07;9.00;;;6.13;;
5533;SDS011;2789;51.902;7.636;2022-08-19T02:57:13;8.27;;;5.70;;
5533;SDS011;2789;51.902;7.636;2022-08-19T02:58:16;6.75;;;5.18;;
5533;SDS011;2789;51.902;7.636;2022-08-19T02:59:19;7.57;;;5.75;;
5533;SDS011;2789;51.902;7.636;2022-08-19T03:00:23;8.40;;;5.78;;
5533;SDS011;2789;51.902;7.636;2022-08-19T03:01:26;8.15;;;6.03;;
5533;SDS011;2789;51.902;7.636;2022-08-19T03:02:30;6.90;;;5.78;;
5533;SDS011;2789;51.902;7.636;2022-08-19T03:03:32;7.30;;;5.40;;
5533;SDS011;2789;51.902;7.636;2022-08-19T03:04:34;6.03;;;5.43;;
5533;SDS011;2789;51.902;7.636;2022-08-19T03:05:36;9.07;;;6.30;;
5533;SDS011;2789;51.902;7.636;2022-08-19T03:06:56;7.53;;;5.63;;
5533;SDS011;2789;51.902;7.636;2022-08-19T03:08:12;9.60;;;5.63;;
5533;SDS011;2789;51.902;7.636;2022-08-19T03:09:15;8.88;;;6.45;;
5533;SDS011;2789;51.902;7.636;2022-08-19T03:10:18;8.82;;;6.05;;
5533;SDS011;2789;51.902;7.636;2022-08-19T03:11:22;6.75;;;5.50;;
5533;SDS011;2789;51.902;7.636;2022-08-19T03:12:27;8.55;;;6.82;;
5533;SDS011;2789;51.902;7.636;2022-08-19T03:13:28;10.38;;;6.55;;
5533;SDS011;2789;51.902;7.636;2022-08-19T03:14:31;8.98;;;5.82;;
5533;SDS011;2789;51.902;7.636;2022-08-19T03:15:33;11.70;;;7.05;;
5533;SDS011;2789;51.902;7.636;2022-08-19T03:16:39;8.23;;;6.35;;
5533;SDS011;2789;51.902;7.636;2022-08-19T03:17:43;11.05;;;6.55;;
5533;SDS011;2789;51.902;7.636;2022-08-19T03:18:45;7.65;;;6.40;;
5533;SDS011;2789;51.902;7.636;2022-08-19T03:19:47;8.68;;;6.80;;
5533;SDS011;2789;51.902;7.636;2022-08-19T03:20:51;10.07;;;6.95;;
5533;SDS011;2789;51.902;7.636;2022-08-19T03:21:53;10.60;;;7.00;;
5533;SDS011;2789;51.902;7.636;2022-08-19T03:22:56;9.90;;;6.97;;
5533;SDS011;2789;51.902;7.636;2022-08-19T03:23:59;8.18;;;6.65;;
5533;SDS011;2789;51.902;7.636;2022-08-19T03:25:03;11.27;;;6.55;;
5533;SDS011;2789;51.902;7.636;2022-08-19T03:26:05;10.90;;;7.05;;
5533;SDS011;2789;51.902;7.636;2022-08-19T03:27:17;9.32;;;7.00;;
5533;SDS011;2789;51.902;7.636;2022-08-19T03:28:20;11.05;;;7.07;;
5533;SDS011;2789;51.902;7.636;2022-08-19T03:29:23;10.48;;;7.05;;
5533;SDS011;2789;51.902;7.636;2022-08-19T03:30:31;8.48;;;6.50;;
5533;SDS011;2789;51.902;7.636;2022-08-19T03:31:34;10.15;;;7.13;;
5533;SDS011;2789;51.902;7.636;2022-08-19T03:32:45;11.40;;;6.78;;
5533;SDS011;2789;51.902;7.636;2022-08-19T03:33:53;7.63;;;6.30;;
5533;SDS011;2789;51.902;7.636;2022-08-19T03:34:55;12.25;;;7.25;;
5533;SDS011;2789;51.902;7.636;2022-08-19T03:36:02;7.88;;;7.07;;
5533;SDS011;2789;51.902;7.636;2022-08-19T03:37:09;9.63;;;8.38;;
5533;SDS011;2789;51.902;7.636;2022-08-19T03:38:14;11.15;;;8.15;;
5533;SDS011;2789;51.902;7.636;2022-08-19T03:39:15;9.73;;;7.85;;
5533;SDS011;2789;51.902;7.636;2022-08-19T03:40:18;12.63;;;9.00;;
5533;SDS011;2789;51.902;7.636;2022-08-19T03:41:20;13.57;;;9.32;;
5533;SDS011;2789;51.902;7.636;2022-08-19T03:42:34;12.63;;;8.63;;
5533;SDS011;2789;51.902;7.636;2022-08-19T03:43:51;12.68;;;9.55;;
5533;SDS011;2789;51.902;7.636;2022-08-19T03:44:54;11.38;;;8.43;;
5533;SDS011;2789;51.902;7.636;2022-08-19T03:46:00;15.43;;;8.98;;
5533;SDS011;2789;51.902;7.636;2022-08-19T03:47:05;13.68;;;9.13;;
5533;SDS011;2789;51.902;7.636;2022-08-19T03:48:07;15.88;;;9.73;;
5533;SDS011;2789;51.902;7.636;2022-08-19T03:49:13;13.82;;;9.35;;
5533;SDS011;2789;51.902;7.636;2022-08-19T03:50:18;11.80;;;8.70;;
5533;SDS011;2789;51.902;7.636;2022-08-19T03:51:23;11.82;;;8.52;;
5533;SDS011;2789;51.902;7.636;2022-08-19T03:52:31;13.55;;;9.80;;
5533;SDS011;2789;51.902;7.636;2022-08-19T03:53:34;11.68;;;8.50;;
5533;SDS011;2789;51.902;7.636;2022-08-19T03:54:36;13.48;;;8.93;;
5533;SDS011;2789;51.902;7.636;2022-08-19T03:55:39;13.40;;;9.70;;
5533;SDS011;2789;51.902;7.636;2022-08-19T03:56:42;15.23;;;9.48;;
5533;SDS011;2789;51.902;7.636;2022-08-19T03:57:47;10.93;;;8.68;;
5533;SDS011;2789;51.902;7.636;2022-08-19T03:58:51;13.02;;;9.52;;
5533;SDS011;2789;51.902;7.636;2022-08-19T03:59:54;11.07;;;8.90;;
5533;SDS011;2789;51.902;7.636;2022-08-19T04:01:13;12.52;;;9.25;;
5533;SDS011;2789;51.902;7.636;2022-08-19T04:02:17;11.60;;;9.73;;
5533;SDS011;2789;51.902;7.636;2022-08-19T04:03:18;14.00;;;9.48;;
5533;SDS011;2789;51.902;7.636;2022-08-19T04:04:21;13.77;;;8.95;;
5533;SDS011;2789;51.902;7.636;2022-08-19T04:05:24;14.20;;;9.60;;
5533;SDS011;2789;51.902;7.636;2022-08-19T04:06:30;15.02;;;10.05;;
5533;SDS011;2789;51.902;7.636;2022-08-19T04:07:33;15.88;;;10.18;;
5533;SDS011;2789;51.902;7.636;2022-08-19T04:08:36;16.10;;;10.70;;
5533;SDS011;2789;51.902;7.636;2022-08-19T04:09:38;14.65;;;10.18;;
5533;SDS011;2789;51.902;7.636;2022-08-19T04:10:40;14.05;;;9.63;;
5533;SDS011;2789;51.902;7.636;2022-08-19T04:11:44;13.50;;;10.10;;
5533;SDS011;2789;51.902;7.636;2022-08-19T04:12:48;12.82;;;9.38;;
5533;SDS011;2789;51.902;7.636;2022-08-19T04:13:53;13.50;;;10.43;;
5533;SDS011;2789;51.902;7.636;2022-08-19T04:14:56;13.35;;;9.27;;
5533;SDS011;2789;51.902;7.636;2022-08-19T04:15:57;13.75;;;9.95;;
5533;SDS011;2789;51.902;7.636;2022-08-19T04:17:01;13.57;;;9.57;;
5533;SDS011;2789;51.902;7.636;2022-08-19T04:18:05;14.20;;;9.65;;
5533;SDS011;2789;51.902;7.636;2022-08-19T04:19:08;15.75;;;10.32;;
5533;SDS011;2789;51.902;7.636;2022-08-19T04:20:10;14.95;;;10.38;;
5533;SDS011;2789;51.902;7.636;2022-08-19T04:21:15;14.20;;;10.35;;
5533;SDS011;2789;51.902;7.636;2022-08-19T04:22:18;15.02;;;10.13;;
5533;SDS011;2789;51.902;7.636;2022-08-19T04:23:20;15.15;;;10.85;;
5533;SDS011;2789;51.902;7.636;2022-08-19T04:24:22;14.88;;;10.32;;
5533;SDS011;2789;51.902;7.636;2022-08-19T04:25:25;11.02;;;9.27;;
5533;SDS011;2789;51.902;7.636;2022-08-19T04:26:27;11.98;;;9.32;;
5533;SDS011;2789;51.902;7.636;2022-08-19T04:27:33;13.95;;;9.68;;
5533;SDS011;2789;51.902;7.636;2022-08-19T04:28:35;11.93;;;9.48;;
5533;SDS011;2789;51.902;7.636;2022-08-19T04:29:39;14.65;;;11.07;;
5533;SDS011;2789;51.902;7.636;2022-08-19T04:30:42;15.68;;;9.48;;
5533;SDS011;2789;51.902;7.636;2022-08-19T04:31:46;15.25;;;10.93;;
5533;SDS011;2789;51.902;7.636;2022-08-19T04:32:47;15.43;;;10.55;;
5533;SDS011;2789;51.902;7.636;2022-08-19T04:33:51;16.65;;;10.07;;
5533;SDS011;2789;51.902;7.636;2022-08-19T04:34:53;14.75;;;9.57;;
5533;SDS011;2789;51.902;7.636;2022-08-19T04:36:18;12.07;;;9.38;;
5533;SDS011;2789;51.902;7.636;2022-08-19T04:37:21;15.52;;;9.65;;
5533;SDS011;2789;51.902;7.636;2022-08-19T04:38:24;15.27;;;10.52;;
5533;SDS011;2789;51.902;7.636;2022-08-19T04:39:26;12.93;;;9.70;;
5533;SDS011;2789;51.902;7.636;2022-08-19T04:40:45;14.55;;;10.68;;
5533;SDS011;2789;51.902;7.636;2022-08-19T04:42:06;16.75;;;11.40;;
5533;SDS011;2789;51.902;7.636;2022-08-19T04:43:31;13.77;;;10.27;;
5533;SDS011;2789;51.902;7.636;2022-08-19T04:44:35;20.38;;;10.88;;
5533;SDS011;2789;51.902;7.636;2022-08-19T04:45:47;15.30;;;10.82;;
5533;SDS011;2789;51.902;7.636;2022-08-19T04:46:56;13.80;;;10.75;;
5533;SDS011;2789;51.902;7.636;2022-08-19T04:47:59;15.10;;;10.98;;
5533;SDS011;2789;51.902;7.636;2022-08-19T04:49:23;15.80;;;11.15;;
5533;SDS011;2789;51.902;7.636;2022-08-19T04:50:26;15.98;;;11.15;;
5533;SDS011;2789;51.902;7.636;2022-08-19T04:51:28;11.82;;;9.98;;
5533;SDS011;2789;51.902;7.636;2022-08-19T04:52:32;15.13;;;10.60;;
5533;SDS011;2789;51.902;7.636;2022-08-19T04:53:35;12.38;;;10.15;;
5533;SDS011;2789;51.902;7.636;2022-08-19T04:54:38;15.05;;;10.80;;
5533;SDS011;2789;51.902;7.636;2022-08-19T04:55:40;15.55;;;10.82;;
5533;SDS011;2789;51.902;7.636;2022-08-19T04:56:44;13.50;;;9.85;;
5533;SDS011;2789;51.902;7.636;2022-08-19T04:57:46;16.73;;;10.90;;
5533;SDS011;2789;51.902;7.636;2022-08-19T04:58:49;15.40;;;10.90;;
5533;SDS011;2789;51.902;7.636;2022-08-19T04:59:53;16.80;;;10.65;;
5533;SDS011;2789;51.902;7.636;2022-08-19T05:00:57;18.85;;;12.35;;
5533;SDS011;2789;51.902;7.636;2022-08-19T05:02:01;14.02;;;10.55;;
5533;SDS011;2789;51.902;7.636;2022-08-19T05:03:04;14.68;;;10.23;;
5533;SDS011;2789;51.902;7.636;2022-08-19T05:04:08;16.98;;;10.63;;
5533;SDS011;2789;51.902;7.636;2022-08-19T05:05:11;13.93;;;10.35;;
5533;SDS011;2789;51.902;7.636;2022-08-19T05:06:14;14.82;;;11.32;;
5533;SDS011;2789;51.902;7.636;2022-08-19T05:07:17;16.05;;;10.88;;
5533;SDS011;2789;51.902;7.636;2022-08-19T05:08:20;13.30;;;10.43;;
5533;SDS011;2789;51.902;7.636;2022-08-19T05:09:31;15.80;;;11.20;;
5533;SDS011;2789;51.902;7.636;2022-08-19T05:10:53;15.43;;;10.93;;
5533;SDS011;2789;51.902;7.636;2022-08-19T05:11:56;16.70;;;10.35;;
5533;SDS011;2789;51.902;7.636;2022-08-19T05:12:57;16.17;;;11.15;;
5533;SDS011;2789;51.902;7.636;2022-08-19T05:14:00;19.83;;;11.50;;
5533;SDS011;2789;51.902;7.636;2022-08-19T05:15:02;15.50;;;10.45;;
5533;SDS011;2789;51.902;7.636;2022-08-19T05:16:08;15.65;;;11.63;;
5533;SDS011;2789;51.902;7.636;2022-08-19T05:17:12;14.55;;;9.85;;
5533;SDS011;2789;51.902;7.636;2022-08-19T05:18:35;14.93;;;10.80;;
5533;SDS011;2789;51.902;7.636;2022-08-19T05:19:55;14.95;;;10.95;;
5533;SDS011;2789;51.902;7.636;2022-08-19T05:21:16;12.52;;;9.60;;
5533;SDS011;2789;51.902;7.636;2022-08-19T05:22:37;16.35;;;10.43;;
5533;SDS011;2789;51.902;7.636;2022-08-19T05:23:40;14.90;;;9.80;;
5533;SDS011;2789;51.902;7.636;2022-08-19T05:24:42;17.00;;;9.98;;
5533;SDS011;2789;51.902;7.636;2022-08-19T05:26:05;16.23;;;9.30;;
5533;SDS011;2789;51.902;7.636;2022-08-19T05:27:06;13.00;;;9.00;;
5533;SDS011;2789;51.902;7.636;2022-08-19T05:28:09;13.07;;;9.02;;
5533;SDS011;2789;51.902;7.636;2022-08-19T05:29:12;12.65;;;8.90;;
5533;SDS011;2789;51.902;7.636;2022-08-19T05:30:16;12.73;;;9.38;;
5533;SDS011;2789;51.902;7.636;2022-08-19T05:31:20;15.43;;;8.90;;
5533;SDS011;2789;51.902;7.636;2022-08-19T05:32:23;12.88;;;8.13;;
5533;SDS011;2789;51.902;7.636;2022-08-19T05:33:25;10.35;;;8.27;;
5533;SDS011;2789;51.902;7.636;2022-08-19T05:34:28;12.00;;;9.00;;
5533;SDS011;2789;51.902;7.636;2022-08-19T05:35:30;12.50;;;8.50;;
5533;SDS011;2789;51.902;7.636;2022-08-19T05:36:35;14.57;;;8.32;;
5533;SDS011;2789;51.902;7.636;2022-08-19T05:37:40;10.88;;;8.65;;
5533;SDS011;2789;51.902;7.636;2022-08-19T05:38:42;10.63;;;8.10;;
5533;SDS011;2789;51.902;7.636;2022-08-19T05:39:44;9.68;;;7.60;;
5533;SDS011;2789;51.902;7.636;2022-08-19T05:40:51;7.95;;;6.68;;
5533;SDS011;2789;51.902;7.636;2022-08-19T05:41:54;10.65;;;7.95;;
5533;SDS011;2789;51.902;7.636;2022-08-19T05:42:58;10.50;;;7.43;;
5533;SDS011;2789;51.902;7.636;2022-08-19T05:44:00;13.55;;;6.85;;
5533;SDS011;2789;51.902;7.636;2022-08-19T05:45:07;13.27;;;8.07;;
5533;SDS011;2789;51.902;7.636;2022-08-19T05:46:15;13.20;;;7.72;;
5533;SDS011;2789;51.902;7.636;2022-08-19T05:47:29;12.75;;;7.85;;
5533;SDS011;2789;51.902;7.636;2022-08-19T05:48:31;12.82;;;7.30;;
5533;SDS011;2789;51.902;7.636;2022-08-19T05:49:33;9.93;;;7.43;;
5533;SDS011;2789;51.902;7.636;2022-08-19T05:50:37;11.35;;;7.28;;
5533;SDS011;2789;51.902;7.636;2022-08-19T05:51:39;11.13;;;7.28;;
5533;SDS011;2789;51.902;7.636;2022-08-19T05:52:41;13.05;;;7.55;;
5533;SDS011;2789;51.902;7.636;2022-08-19T05:53:54;9.73;;;7.10;;
5533;SDS011;2789;51.902;7.636;2022-08-19T05:54:57;13.13;;;7.68;;
5533;SDS011;2789;51.902;7.636;2022-08-19T05:56:02;13.65;;;7.60;;
5533;SDS011;2789;51.902;7.636;2022-08-19T05:57:06;9.35;;;7.45;;
5533;SDS011;2789;51.902;7.636;2022-08-19T05:58:11;8.45;;;7.00;;
5533;SDS011;2789;51.902;7.636;2022-08-19T05:59:14;10.95;;;7.15;;
5533;SDS011;2789;51.902;7.636;2022-08-19T06:00:19;12.30;;;7.13;;
5533;SDS011;2789;51.902;7.636;2022-08-19T06:01:25;9.88;;;7.20;;
5533;SDS011;2789;51.902;7.636;2022-08-19T06:02:29;12.73;;;8.10;;
5533;SDS011;2789;51.902;7.636;2022-08-19T06:03:32;8.05;;;6.90;;
5533;SDS011;2789;51.902;7.636;2022-08-19T06:04:34;9.02;;;6.72;;
5533;SDS011;2789;51.902;7.636;2022-08-19T06:05:37;9.63;;;7.47;;
5533;SDS011;2789;51.902;7.636;2022-08-19T06:06:53;9.68;;;7.75;;
5533;SDS011;2789;51.902;7.636;2022-08-19T06:07:55;10.48;;;7.78;;
5533;SDS011;2789;51.902;7.636;2022-08-19T06:08:57;10.90;;;7.55;;
5533;SDS011;2789;51.902;7.636;2022-08-19T06:10:00;13.82;;;7.97;;
5533;SDS011;2789;51.902;7.636;2022-08-19T06:11:12;12.70;;;8.70;;
5533;SDS011;2789;51.902;7.636;2022-08-19T06:12:19;9.98;;;7.65;;
5533;SDS011;2789;51.902;7.636;2022-08-19T06:13:28;12.55;;;8.20;;
5533;SDS011;2789;51.902;7.636;2022-08-19T06:14:35;12.98;;;7.97;;
5533;SDS011;2789;51.902;7.636;2022-08-19T06:15:42;11.27;;;7.75;;
5533;SDS011;2789;51.902;7.636;2022-08-19T06:16:45;12.00;;;8.65;;
5533;SDS011;2789;51.902;7.636;2022-08-19T06:17:49;13.50;;;9.00;;
5533;SDS011;2789;51.902;7.636;2022-08-19T06:18:51;10.95;;;7.45;;
5533;SDS011;2789;51.902;7.636;2022-08-19T06:19:55;14.48;;;8.77;;
5533;SDS011;2789;51.902;7.636;2022-08-19T06:20:56;10.60;;;7.90;;
5533;SDS011;2789;51.902;7.636;2022-08-19T06:21:59;11.15;;;8.30;;
5533;SDS011;2789;51.902;7.636;2022-08-19T06:23:02;12.68;;;8.55;;
5533;SDS011;2789;51.902;7.636;2022-08-19T06:24:05;17.38;;;9.68;;
5533;SDS011;2789;51.902;7.636;2022-08-19T06:25:10;12.40;;;8.55;;
5533;SDS011;2789;51.902;7.636;2022-08-19T06:26:12;14.45;;;8.70;;
5533;SDS011;2789;51.902;7.636;2022-08-19T06:27:15;11.77;;;8.65;;
5533;SDS011;2789;51.902;7.636;2022-08-19T06:28:18;12.30;;;8.52;;
5533;SDS011;2789;51.902;7.636;2022-08-19T06:29:21;13.27;;;8.98;;
5533;SDS011;2789;51.902;7.636;2022-08-19T06:30:26;12.48;;;9.38;;
5533;SDS011;2789;51.902;7.636;2022-08-19T06:31:28;15.48;;;8.57;;
5533;SDS011;2789;51.902;7.636;2022-08-19T06:32:34;13.57;;;9.93;;
5533;SDS011;2789;51.902;7.636;2022-08-19T06:33:44;17.63;;;9.73;;
5533;SDS011;2789;51.902;7.636;2022-08-19T06:34:50;14.10;;;10.07;;
5533;SDS011;2789;51.902;7.636;2022-08-19T06:35:52;13.00;;;9.23;;
5533;SDS011;2789;51.902;7.636;2022-08-19T06:36:54;11.88;;;8.80;;
5533;SDS011;2789;51.902;7.636;2022-08-19T06:38:00;12.00;;;8.70;;